createdAt,value
2019-02-05T00:00:46.954Z,77.67
2019-02-05T00:03:16.704Z,77.37
2019-02-05T00:05:44.712Z,77.80
2019-02-05T00:08:12.773Z,80.67
2019-02-05T00:10:40.735Z,82.60
2019-02-05T00:13:08.715Z,79.27
2019-02-05T00:15:36.780Z,80.03
2019-02-05T00:18:04.760Z,76.63
2019-02-05T00:20:32.819Z,77.70
2019-02-05T00:23:00.792Z,79.47
2019-02-05T00:25:28.759Z,77.07
2019-02-05T00:27:56.635Z,80.00
2019-02-05T00:30:25.055Z,78.37
2019-02-05T00:32:53.066Z,78.17
2019-02-05T00:35:21.069Z,76.40
2019-02-05T00:37:49.133Z,77.80
2019-02-05T00:40:17.186Z,77.77
2019-02-05T00:42:45.180Z,78.37
2019-02-05T00:45:13.432Z,75.47
2019-02-05T00:47:41.736Z,78.77
2019-02-05T00:50:10.809Z,80.13
2019-02-05T00:52:38.885Z,79.83
2019-02-05T00:55:07.996Z,79.17
2019-02-05T00:57:36.051Z,81.13
2019-02-05T01:00:05.757Z,77.13
2019-02-05T01:02:34.136Z,75.10
2019-02-05T01:05:02.224Z,77.70
2019-02-05T01:07:30.289Z,78.30
2019-02-05T01:09:58.756Z,77.47
2019-02-05T01:12:26.722Z,77.00
2019-02-05T01:14:54.720Z,80.83
2019-02-05T01:17:22.793Z,74.50
2019-02-05T01:19:50.829Z,76.60
2019-02-05T01:22:18.827Z,75.40
2019-02-05T01:24:46.917Z,78.53
2019-02-05T01:27:14.978Z,78.90
2019-02-05T01:29:43.023Z,76.40
2019-02-05T01:32:10.982Z,76.90
2019-02-05T01:34:39.295Z,76.47
2019-02-05T01:37:07.321Z,77.40
2019-02-05T01:39:35.411Z,79.50
2019-02-05T01:42:03.386Z,78.13
2019-02-05T01:44:31.358Z,78.47
2019-02-05T01:46:59.359Z,75.27
2019-02-05T01:49:27.393Z,78.00
2019-02-05T01:51:55.657Z,76.97
2019-02-05T01:54:23.640Z,77.23
2019-02-05T01:56:51.707Z,75.17
2019-02-05T01:59:19.659Z,75.67
2019-02-05T02:01:47.657Z,75.30
2019-02-05T02:04:15.718Z,77.60
2019-02-05T02:06:43.669Z,77.50
2019-02-05T02:09:11.667Z,77.60
2019-02-05T02:11:39.724Z,77.20
2019-02-05T02:14:07.700Z,75.60
2019-02-05T02:16:35.819Z,77.50
2019-02-05T02:19:04.368Z,81.17
2019-02-05T02:21:32.403Z,75.20
2019-02-05T02:24:00.387Z,78.53
2019-02-05T02:26:28.356Z,76.37
2019-02-05T02:28:56.310Z,78.20
2019-02-05T02:31:24.341Z,78.63
2019-02-05T02:33:52.360Z,79.27
2019-02-05T02:36:20.341Z,74.17
2019-02-05T02:38:49.396Z,81.10
2019-02-05T02:41:18.320Z,76.67
2019-02-05T02:43:46.292Z,77.50
2019-02-05T02:46:14.306Z,77.57
2019-02-05T02:48:42.357Z,81.10
2019-02-05T02:51:10.392Z,79.40
2019-02-05T02:53:38.377Z,77.07
2019-02-05T02:56:06.331Z,81.97
2019-02-05T02:58:34.429Z,81.27
2019-02-05T03:01:02.490Z,75.10
2019-02-05T03:03:30.543Z,76.40
2019-02-05T03:05:58.548Z,78.87
2019-02-05T03:08:26.599Z,77.77
2019-02-05T03:10:54.550Z,75.80
2019-02-05T03:13:22.539Z,78.33
2019-02-05T03:15:50.696Z,77.00
2019-02-05T03:18:18.677Z,76.90
2019-02-05T03:20:46.651Z,75.13
2019-02-05T03:23:14.599Z,78.63
2019-02-05T03:25:42.619Z,77.10
2019-02-05T03:28:10.662Z,75.50
2019-02-05T03:30:38.686Z,77.00
2019-02-05T03:33:06.686Z,77.30
2019-02-05T03:35:34.684Z,74.87
2019-02-05T03:38:02.715Z,78.63
2019-02-05T03:40:38.550Z,77.50
2019-02-05T03:43:06.660Z,78.83
2019-02-05T03:45:34.663Z,76.47
2019-02-05T03:48:02.836Z,77.50
2019-02-05T03:50:31.901Z,76.37
2019-02-05T03:53:02.113Z,77.60
2019-02-05T03:55:36.109Z,78.67
2019-02-05T03:58:35.500Z,79.13
2019-02-05T04:01:32.259Z,83.27
2019-02-05T04:04:25.197Z,77.87
2019-02-05T04:07:16.597Z,79.93
2019-02-05T04:09:56.246Z,79.80
2019-02-05T04:12:38.563Z,79.50
2019-02-05T04:15:15.575Z,79.30
2019-02-05T04:18:01.648Z,78.67
2019-02-05T04:20:51.513Z,80.70
2019-02-05T04:23:31.359Z,78.67
2019-02-05T04:26:24.246Z,77.60
2019-02-05T04:28:56.327Z,78.83
2019-02-05T04:31:31.931Z,78.17
2019-02-05T04:34:27.879Z,82.53
2019-02-05T04:37:07.270Z,78.00
2019-02-05T04:39:57.953Z,75.87
2019-02-05T04:42:54.537Z,87.30
2019-02-05T04:45:40.550Z,76.60
2019-02-05T04:48:30.258Z,81.10
2019-02-05T04:51:20.103Z,83.90
2019-02-05T04:54:25.536Z,81.20
2019-02-05T04:57:15.788Z,81.00
2019-02-05T04:59:48.481Z,82.13
2019-02-05T05:02:37.343Z,82.07
2019-02-05T05:05:08.863Z,79.70
2019-02-05T05:08:04.843Z,83.85
2019-02-05T05:10:32.849Z,82.50
2019-02-05T05:13:00.835Z,78.10
2019-02-05T05:15:28.883Z,77.90
2019-02-05T05:17:57.152Z,77.10
2019-02-05T05:20:25.542Z,80.32
2019-02-05T05:22:53.521Z,80.00
2019-02-05T05:25:21.503Z,77.93
2019-02-05T05:27:51.550Z,82.50
2019-02-05T05:30:19.498Z,82.37
2019-02-05T05:32:47.501Z,82.40
2019-02-05T05:35:15.511Z,80.72
2019-02-05T05:37:43.500Z,80.43
2019-02-05T05:40:11.666Z,77.50
2019-02-05T05:42:39.626Z,84.07
2019-02-05T05:45:09.343Z,78.50
2019-02-05T05:47:37.321Z,81.53
2019-02-05T05:50:06.213Z,80.67
2019-02-05T05:52:34.305Z,78.60
2019-02-05T05:55:02.360Z,79.20
2019-02-05T05:57:30.642Z,79.30
2019-02-05T05:59:58.703Z,78.97
2019-02-05T06:02:26.747Z,83.70
2019-02-05T06:04:54.743Z,81.73
2019-02-05T06:07:22.791Z,80.60
2019-02-05T06:09:50.773Z,85.70
2019-02-05T06:12:18.793Z,79.83
2019-02-05T06:14:47.009Z,79.03
2019-02-05T06:17:14.972Z,86.20
2019-02-05T06:19:42.962Z,80.50
2019-02-05T06:22:11.014Z,81.57
2019-02-05T06:24:39.000Z,82.13
2019-02-05T06:27:06.987Z,86.40
2019-02-05T06:29:35.042Z,79.30
2019-02-05T06:32:03.439Z,81.77
2019-02-05T06:34:31.382Z,92.60
2019-02-05T06:36:59.345Z,82.60
2019-02-05T06:39:27.734Z,80.53
2019-02-05T06:41:55.700Z,80.70
2019-02-05T06:44:23.657Z,84.77
2019-02-05T06:46:51.628Z,79.10
2019-02-05T06:49:19.597Z,82.27
2019-02-05T06:51:47.626Z,85.17
2019-02-05T06:54:15.634Z,82.20
2019-02-05T06:56:43.635Z,79.43
2019-02-05T06:59:11.682Z,80.00
2019-02-05T07:01:39.680Z,92.43
2019-02-05T07:04:07.811Z,81.03
2019-02-05T07:06:35.809Z,80.20
2019-02-05T07:09:07.049Z,79.53
2019-02-05T07:11:34.996Z,82.33
2019-02-05T07:14:03.009Z,84.60
2019-02-05T07:16:31.055Z,87.27
2019-02-05T07:18:59.081Z,120.60
2019-02-05T07:21:27.050Z,82.57
2019-02-05T07:23:55.112Z,78.40
2019-02-05T07:26:23.368Z,79.80
2019-02-05T07:28:58.895Z,80.33
2019-02-05T07:31:21.030Z,83.27
2019-02-05T07:33:49.088Z,81.70
2019-02-05T07:36:17.124Z,78.80
2019-02-05T07:38:45.152Z,82.33
2019-02-05T07:41:13.225Z,83.67
2019-02-05T07:43:41.272Z,83.23
2019-02-05T07:46:09.636Z,82.27
2019-02-05T07:48:37.676Z,82.33
2019-02-05T07:51:05.685Z,80.50
2019-02-05T07:53:33.708Z,80.93
2019-02-05T07:56:01.667Z,79.40
2019-02-05T07:58:29.734Z,79.03
2019-02-05T08:00:57.752Z,81.10
2019-02-05T08:03:25.724Z,82.43
2019-02-05T08:05:53.889Z,78.87
2019-02-05T08:08:21.967Z,79.73
2019-02-05T08:10:50.012Z,76.50
2019-02-05T08:13:18.087Z,80.10
2019-02-05T08:15:46.128Z,81.27
2019-02-05T08:18:14.182Z,79.43
2019-02-05T08:20:42.660Z,77.13
2019-02-05T08:23:10.624Z,76.20
2019-02-05T08:25:38.578Z,75.70
2019-02-05T08:28:06.540Z,75.83
2019-02-05T08:30:35.972Z,76.57
2019-02-05T08:33:04.136Z,78.50
2019-02-05T08:35:32.321Z,78.80
2019-02-05T08:38:00.624Z,78.80
2019-02-05T08:40:28.589Z,77.63
2019-02-05T08:42:56.565Z,76.00
2019-02-05T08:45:26.036Z,76.73
2019-02-05T08:47:54.116Z,79.27
2019-02-05T08:50:23.024Z,78.03
2019-02-05T08:52:50.998Z,80.20
2019-02-05T08:55:19.787Z,80.80
2019-02-05T08:57:48.047Z,80.87
2019-02-05T09:00:17.364Z,79.67
2019-02-05T09:02:45.932Z,77.67
2019-02-05T09:05:14.086Z,79.10
2019-02-05T09:07:42.065Z,81.20
2019-02-05T09:10:11.382Z,80.70
2019-02-05T09:12:39.355Z,80.50
2019-02-05T09:15:08.509Z,84.47
2019-02-05T09:17:36.467Z,83.20
2019-02-05T09:20:05.434Z,78.67
2019-02-05T09:22:33.465Z,81.10
2019-02-05T09:25:01.513Z,77.97
2019-02-05T09:27:29.512Z,81.37
2019-02-05T09:29:57.572Z,84.83
2019-02-05T09:32:25.572Z,78.73
2019-02-05T09:34:53.540Z,81.30
2019-02-05T09:37:21.598Z,81.30
2019-02-05T09:39:49.963Z,84.83
2019-02-05T09:42:18.552Z,80.87
2019-02-05T09:44:46.621Z,85.03
2019-02-05T09:47:14.677Z,78.50
2019-02-05T09:49:42.666Z,80.23
2019-02-05T09:52:10.719Z,83.30
2019-02-05T09:54:38.755Z,77.80
2019-02-05T09:57:07.065Z,78.10
2019-02-05T09:59:45.254Z,82.37
2019-02-05T10:02:04.876Z,82.17
2019-02-05T10:04:32.973Z,79.10
2019-02-05T10:07:00.988Z,83.90
2019-02-05T10:09:28.985Z,82.50
2019-02-05T10:11:57.093Z,84.47
2019-02-05T10:14:25.164Z,83.40
2019-02-05T10:16:53.241Z,83.87
2019-02-05T10:19:21.299Z,84.77
2019-02-05T10:21:49.384Z,80.83
2019-02-05T10:24:17.499Z,84.57
2019-02-05T10:26:45.559Z,84.10
2019-02-05T10:29:13.549Z,83.50
2019-02-05T10:31:41.928Z,84.77
2019-02-05T10:34:11.226Z,78.73
2019-02-05T10:36:39.238Z,86.23
2019-02-05T10:39:08.814Z,85.00
2019-02-05T10:41:36.852Z,82.00
2019-02-05T10:44:05.476Z,83.67
2019-02-05T10:46:33.620Z,82.53
2019-02-05T10:49:03.372Z,85.53
2019-02-05T10:51:31.902Z,87.03
2019-02-05T10:53:59.936Z,87.60
2019-02-05T10:56:27.960Z,83.50
2019-02-05T10:58:56.033Z,82.47
2019-02-05T11:01:24.096Z,82.87
2019-02-05T11:03:52.061Z,82.53
2019-02-05T11:06:20.306Z,88.60
2019-02-05T11:08:48.346Z,82.70
2019-02-05T11:11:16.411Z,82.70
2019-02-05T11:13:44.472Z,86.13
2019-02-05T11:16:12.513Z,83.77
2019-02-05T11:18:40.511Z,84.90
2019-02-05T11:21:08.561Z,89.97
2019-02-05T11:23:36.553Z,84.60
2019-02-05T11:26:04.714Z,95.70
2019-02-05T11:28:33.095Z,87.70
2019-02-05T11:31:01.156Z,85.97
2019-02-05T11:33:29.536Z,88.73
2019-02-05T11:35:57.561Z,84.57
2019-02-05T11:38:25.562Z,85.10
2019-02-05T11:40:53.572Z,89.27
2019-02-05T11:43:21.605Z,87.77
2019-02-05T11:45:49.575Z,84.37
2019-02-05T11:48:18.295Z,87.27
2019-02-05T11:50:46.350Z,85.63
2019-02-05T11:53:14.373Z,85.13
2019-02-05T11:55:42.445Z,83.77
2019-02-05T11:58:10.443Z,83.27
2019-02-05T12:00:43.232Z,81.00
2019-02-05T12:03:11.308Z,88.63
2019-02-05T12:05:39.716Z,85.87
2019-02-05T12:08:07.766Z,89.47
2019-02-05T12:10:35.899Z,84.17
2019-02-05T12:13:04.109Z,88.47
2019-02-05T12:15:32.289Z,82.03
2019-02-05T12:18:00.470Z,82.17
2019-02-05T12:20:28.525Z,87.23
2019-02-05T12:22:56.525Z,85.97
2019-02-05T12:25:24.562Z,80.40
2019-02-05T12:27:52.554Z,84.93
2019-02-05T12:30:22.039Z,82.13
2019-02-05T12:32:50.220Z,83.37
2019-02-05T12:35:18.303Z,84.87
2019-02-05T12:37:46.364Z,90.40
2019-02-05T12:40:14.930Z,81.77
2019-02-05T12:42:43.138Z,84.87
2019-02-05T12:45:12.257Z,84.23
2019-02-05T12:47:40.289Z,83.50
2019-02-05T12:50:10.842Z,83.03
2019-02-05T12:52:39.415Z,85.17
2019-02-05T12:55:13.355Z,90.57
2019-02-05T12:57:37.079Z,85.63
2019-02-05T13:00:08.789Z,87.17
2019-02-05T13:02:36.832Z,81.80
2019-02-05T13:05:05.163Z,77.27
2019-02-05T13:07:33.153Z,79.77
2019-02-05T13:10:01.136Z,81.70
2019-02-05T13:12:29.296Z,80.20
2019-02-05T13:14:57.581Z,83.73
2019-02-05T13:17:25.623Z,85.13
2019-02-05T13:19:53.641Z,82.43
2019-02-05T13:22:21.696Z,87.57
2019-02-05T13:24:49.760Z,86.90
2019-02-05T13:27:17.733Z,81.53
2019-02-05T13:29:45.777Z,82.30
2019-02-05T13:32:13.766Z,80.17
2019-02-05T13:34:41.719Z,89.07
2019-02-05T13:37:09.747Z,85.67
2019-02-05T13:39:37.830Z,87.20
2019-02-05T13:42:06.252Z,84.47
2019-02-05T13:44:34.365Z,90.93
2019-02-05T13:47:02.721Z,84.37
2019-02-05T13:49:30.875Z,81.20
2019-02-05T13:51:58.841Z,81.13
2019-02-05T13:54:26.886Z,80.30
2019-02-05T13:56:54.880Z,93.47
2019-02-05T13:59:22.863Z,130.50
2019-02-05T14:01:50.937Z,101.17
2019-02-05T14:04:19.118Z,82.07
2019-02-05T14:06:50.279Z,84.00
2019-02-05T14:09:17.190Z,84.20
2019-02-05T14:11:45.152Z,87.17
2019-02-05T14:14:13.124Z,83.80
2019-02-05T14:16:41.100Z,79.73
2019-02-05T14:19:09.072Z,85.93
2019-02-05T14:21:37.057Z,86.47
2019-02-05T14:24:05.128Z,81.13
2019-02-05T14:26:33.180Z,82.83
2019-02-05T14:29:01.447Z,87.20
2019-02-05T14:31:31.471Z,83.83
2019-02-05T14:33:59.250Z,81.67
2019-02-05T14:36:27.636Z,82.97
2019-02-05T14:38:55.861Z,80.77
2019-02-05T14:41:23.859Z,82.00
2019-02-05T14:43:51.836Z,86.23
2019-02-05T14:46:19.892Z,84.37
2019-02-05T14:48:47.948Z,94.20
2019-02-05T14:51:15.971Z,89.93
2019-02-05T14:53:44.385Z,88.57
2019-02-05T14:56:12.469Z,93.03
2019-02-05T14:58:40.459Z,87.93
2019-02-05T15:01:08.414Z,89.07
2019-02-05T15:03:36.414Z,85.23
2019-02-05T15:06:04.566Z,85.43
2019-02-05T15:08:32.685Z,83.73
2019-02-05T15:11:00.782Z,84.97
2019-02-05T15:13:28.889Z,81.50
2019-02-05T15:15:56.917Z,97.03
2019-02-05T15:18:25.221Z,87.33
2019-02-05T15:20:53.257Z,90.70
2019-02-05T15:23:21.550Z,95.30
2019-02-05T15:25:49.982Z,85.67
2019-02-05T15:28:18.093Z,86.40
2019-02-05T15:30:46.104Z,85.47
2019-02-05T15:33:52.172Z,84.27
2019-02-05T15:36:31.773Z,86.60
2019-02-05T15:39:00.119Z,85.53
2019-02-05T15:41:28.143Z,84.40
2019-02-05T15:43:56.121Z,87.60
2019-02-05T15:46:24.235Z,82.73
2019-02-05T15:48:52.267Z,88.60
2019-02-05T15:51:20.372Z,87.87
2019-02-05T15:53:48.492Z,91.03
2019-02-05T15:56:16.676Z,88.43
2019-02-05T15:58:44.923Z,85.53
2019-02-05T16:01:12.997Z,91.57
2019-02-05T16:03:41.241Z,86.17
2019-02-05T16:06:09.663Z,87.00
2019-02-05T16:08:37.750Z,87.40
2019-02-05T16:11:05.885Z,87.80
2019-02-05T16:13:33.917Z,87.63
2019-02-05T16:16:02.119Z,87.90
2019-02-05T16:18:30.200Z,88.73
2019-02-05T16:20:58.776Z,87.57
2019-02-05T16:23:26.839Z,90.13
2019-02-05T16:25:54.987Z,90.07
2019-02-05T16:28:22.976Z,92.00
2019-02-05T16:30:51.086Z,95.03
2019-02-05T16:33:19.165Z,99.47
2019-02-05T16:35:47.146Z,91.00
2019-02-05T16:38:15.328Z,91.17
2019-02-05T16:40:43.671Z,99.60
2019-02-05T16:43:11.731Z,86.13
2019-02-05T16:45:39.787Z,86.00
2019-02-05T16:48:07.860Z,83.83
2019-02-05T16:50:40.120Z,86.50
2019-02-05T16:53:08.994Z,89.20
2019-02-05T16:55:37.210Z,85.90
2019-02-05T16:58:06.162Z,99.97
2019-02-05T17:00:35.129Z,93.33
2019-02-05T17:03:03.382Z,85.30
2019-02-05T17:05:32.536Z,89.13
2019-02-05T17:08:00.590Z,92.13
2019-02-05T17:10:28.860Z,89.87
2019-02-05T17:12:56.857Z,90.23
2019-02-05T17:15:24.902Z,90.47
2019-02-05T17:17:52.911Z,95.30
2019-02-05T17:20:22.878Z,101.90
2019-02-05T17:22:51.364Z,91.73
2019-02-05T17:25:19.697Z,84.70
2019-02-05T17:27:47.873Z,91.93
2019-02-05T17:30:20.206Z,86.50
2019-02-05T17:32:48.267Z,88.00
2019-02-05T17:35:16.221Z,89.03
2019-02-05T17:37:44.195Z,91.83
2019-02-05T17:40:13.745Z,89.33
2019-02-05T17:42:42.035Z,88.00
2019-02-05T17:45:14.580Z,94.20
2019-02-05T17:47:42.663Z,91.43
2019-02-05T17:50:10.717Z,89.63
2019-02-05T17:52:38.798Z,86.67
2019-02-05T17:55:07.215Z,85.80
2019-02-05T17:57:35.676Z,97.07
2019-02-05T18:00:06.947Z,83.97
2019-02-05T18:02:34.983Z,84.27
2019-02-05T18:05:03.056Z,85.63
2019-02-05T18:07:31.124Z,90.13
2019-02-05T18:09:59.473Z,85.80
2019-02-05T18:12:27.443Z,87.63
2019-02-05T18:14:55.404Z,93.27
2019-02-05T18:17:23.421Z,90.00
2019-02-05T18:19:51.454Z,89.60
2019-02-05T18:22:19.454Z,93.83
2019-02-05T18:24:47.493Z,96.00
2019-02-05T18:27:15.478Z,89.03
2019-02-05T18:29:44.966Z,89.27
2019-02-05T18:32:13.039Z,96.20
2019-02-05T18:34:41.012Z,98.63
2019-02-05T18:37:10.044Z,93.80
2019-02-05T18:39:40.096Z,92.07
2019-02-05T18:42:07.790Z,91.03
2019-02-05T18:44:35.792Z,93.43
2019-02-05T18:47:03.857Z,92.57
2019-02-05T18:49:31.901Z,87.40
2019-02-05T18:51:59.880Z,94.03
2019-02-05T18:54:27.858Z,89.70
2019-02-05T18:56:55.845Z,96.87
2019-02-05T18:59:23.925Z,91.70
2019-02-05T19:01:52.489Z,91.40
2019-02-05T19:04:23.117Z,95.37
2019-02-05T19:06:51.327Z,88.13
2019-02-05T19:09:19.361Z,93.20
2019-02-05T19:11:47.404Z,88.97
2019-02-05T19:14:15.421Z,95.07
2019-02-05T19:16:43.553Z,93.17
2019-02-05T19:19:15.079Z,91.63
2019-02-05T19:21:41.870Z,90.10
2019-02-05T19:24:29.311Z,94.42
2019-02-05T19:26:57.568Z,89.50
2019-02-05T19:29:25.548Z,91.10
2019-02-05T19:31:53.677Z,93.50
2019-02-05T19:34:21.684Z,106.35
2019-02-05T19:36:49.658Z,116.07
2019-02-05T19:39:17.741Z,109.03
2019-02-05T19:41:45.770Z,97.90
2019-02-05T19:44:13.745Z,100.33
2019-02-05T19:47:16.421Z,94.20
2019-02-05T19:49:48.387Z,95.92
2019-02-05T19:52:16.469Z,94.60
2019-02-05T19:54:44.548Z,90.95
2019-02-05T19:57:12.759Z,92.30
2019-02-05T19:59:41.927Z,91.80
2019-02-05T20:02:11.091Z,102.53
2019-02-05T20:04:39.056Z,96.28
2019-02-05T20:07:07.041Z,94.53
2019-02-05T20:09:35.142Z,94.45
2019-02-05T20:12:03.185Z,89.97
2019-02-05T20:14:31.253Z,94.00
2019-02-05T20:16:59.327Z,93.00
2019-02-05T20:19:27.499Z,98.58
2019-02-05T20:21:55.591Z,90.75
2019-02-05T20:24:23.644Z,90.67
2019-02-05T20:26:51.608Z,94.07
2019-02-05T20:29:19.947Z,95.40
2019-02-05T20:31:48.041Z,94.35
2019-02-05T20:34:16.154Z,94.40
2019-02-05T20:36:44.289Z,92.67
2019-02-05T20:39:13.961Z,95.50
2019-02-05T20:41:42.056Z,95.72
2019-02-05T20:44:10.149Z,92.82
2019-02-05T20:46:38.113Z,91.42
2019-02-05T20:49:06.237Z,92.82
2019-02-05T20:51:34.277Z,91.08
2019-02-05T20:54:02.563Z,99.57
2019-02-05T20:56:31.127Z,97.97
2019-02-05T20:59:00.348Z,99.50
2019-02-05T21:01:28.465Z,97.27
2019-02-05T21:04:01.322Z,98.35
2019-02-05T21:06:26.216Z,109.50
2019-02-05T21:08:54.272Z,99.97
2019-02-05T21:11:22.317Z,99.85
2019-02-05T21:13:50.310Z,94.92
2019-02-05T21:16:18.356Z,94.52
2019-02-05T21:18:46.385Z,93.80
2019-02-05T21:21:14.395Z,93.60
2019-02-05T21:23:42.382Z,92.10
2019-02-05T21:26:11.386Z,94.60
2019-02-05T21:28:40.344Z,97.78
2019-02-05T21:31:08.327Z,92.35
2019-02-05T21:33:36.308Z,92.05
2019-02-05T21:36:04.359Z,92.78
2019-02-05T21:38:32.355Z,92.20
2019-02-05T21:41:00.457Z,101.18
2019-02-05T21:43:28.497Z,94.90
2019-02-05T21:45:56.562Z,94.67
2019-02-05T21:48:24.875Z,104.63
2019-02-05T21:50:53.003Z,101.78
2019-02-05T21:53:21.100Z,99.13
2019-02-05T21:55:49.608Z,104.00
2019-02-05T21:58:17.666Z,102.20
2019-02-05T22:00:45.737Z,93.10
2019-02-05T22:03:13.789Z,99.97
2019-02-05T22:05:42.262Z,104.70
2019-02-05T22:08:10.348Z,100.72
2019-02-05T22:10:38.439Z,93.20
2019-02-05T22:13:07.261Z,103.12
2019-02-05T22:15:35.461Z,94.45
2019-02-05T22:18:03.449Z,92.30
2019-02-05T22:20:31.522Z,100.55
2019-02-05T22:22:59.595Z,94.10
2019-02-05T22:25:27.880Z,101.47
2019-02-05T22:27:56.020Z,95.70
2019-02-05T22:30:28.057Z,95.07
2019-02-05T22:32:54.625Z,97.30
2019-02-05T22:35:23.609Z,93.47
2019-02-05T22:37:51.992Z,101.12
2019-02-05T22:40:20.937Z,102.15
2019-02-05T22:42:48.946Z,92.47
2019-02-05T22:45:17.290Z,98.58
2019-02-05T22:47:45.308Z,96.30
2019-02-05T22:50:14.920Z,100.20
2019-02-05T22:52:43.508Z,97.67
2019-02-05T22:55:11.793Z,98.70
2019-02-05T22:57:39.866Z,94.90
2019-02-05T23:00:13.929Z,95.53
2019-02-05T23:02:41.908Z,97.60
2019-02-05T23:05:44.456Z,94.35
2019-02-05T23:08:12.492Z,96.78
2019-02-05T23:10:51.687Z,96.08
2019-02-05T23:13:20.300Z,90.97
2019-02-05T23:15:49.309Z,101.95
2019-02-05T23:18:17.364Z,94.17
2019-02-05T23:20:45.627Z,92.02
2019-02-05T23:23:13.617Z,96.70
2019-02-05T23:25:41.660Z,92.95
2019-02-05T23:28:09.685Z,98.80
2019-02-05T23:30:37.710Z,97.53
2019-02-05T23:33:05.792Z,99.05
2019-02-05T23:35:33.912Z,97.65
2019-02-05T23:38:01.949Z,92.30
2019-02-05T23:40:30.037Z,93.25
2019-02-05T23:42:58.103Z,96.22
2019-02-05T23:45:26.156Z,94.05
2019-02-05T23:47:54.200Z,97.25
2019-02-05T23:50:22.525Z,90.55
2019-02-05T23:52:50.565Z,98.42
2019-02-05T23:55:18.651Z,98.78
2019-02-05T23:57:46.830Z,101.53
